sensor_id;sensor_type;location;lat;lon;timestamp;temperature;humidity
72936;DHT22;61085;48.804;9.228;2023-04-25T00:02:13;10.90;99.90
72936;DHT22;61085;48.804;9.228;2023-04-25T00:04:38;10.90;99.90
72936;DHT22;61085;48.804;9.228;2023-04-25T00:07:04;11.00;99.90
72936;DHT22;61085;48.804;9.228;2023-04-25T00:09:30;11.00;99.90
72936;DHT22;61085;48.804;9.228;2023-04-25T00:11:55;10.90;99.90
72936;DHT22;61085;48.804;9.228;2023-04-25T00:14:21;11.00;99.90
72936;DHT22;61085;48.804;9.228;2023-04-25T00:16:48;11.30;99.90
72936;DHT22;61085;48.804;9.228;2023-04-25T00:19:13;11.00;99.90
72936;DHT22;61085;48.804;9.228;2023-04-25T00:21:39;11.00;99.90
72936;DHT22;61085;48.804;9.228;2023-04-25T00:24:08;11.00;99.90
72936;DHT22;61085;48.804;9.228;2023-04-25T00:26:35;11.10;99.90
72936;DHT22;61085;48.804;9.228;2023-04-25T00:29:01;11.10;99.90
72936;DHT22;61085;48.804;9.228;2023-04-25T00:31:27;11.00;99.90
72936;DHT22;61085;48.804;9.228;2023-04-25T00:33:54;11.20;99.90
72936;DHT22;61085;48.804;9.228;2023-04-25T00:36:20;11.40;99.90
72936;DHT22;61085;48.804;9.228;2023-04-25T00:38:45;11.00;99.90
72936;DHT22;61085;48.804;9.228;2023-04-25T00:41:11;11.10;99.90
72936;DHT22;61085;48.804;9.228;2023-04-25T00:43:37;11.10;99.90
72936;DHT22;61085;48.804;9.228;2023-04-25T00:46:03;11.00;99.90
72936;DHT22;61085;48.804;9.228;2023-04-25T00:48:29;11.00;99.90
72936;DHT22;61085;48.804;9.228;2023-04-25T00:50:57;10.90;99.90
72936;DHT22;61085;48.804;9.228;2023-04-25T00:53:25;10.90;99.90
72936;DHT22;61085;48.804;9.228;2023-04-25T00:55:51;11.00;99.90
72936;DHT22;61085;48.804;9.228;2023-04-25T00:58:18;11.00;99.90
72936;DHT22;61085;48.804;9.228;2023-04-25T01:00:45;11.10;99.90
72936;DHT22;61085;48.804;9.228;2023-04-25T01:03:12;11.00;99.90
72936;DHT22;61085;48.804;9.228;2023-04-25T01:05:40;11.00;99.90
72936;DHT22;61085;48.804;9.228;2023-04-25T01:08:06;10.90;99.90
72936;DHT22;61085;48.804;9.228;2023-04-25T01:10:32;11.00;99.90
72936;DHT22;61085;48.804;9.228;2023-04-25T01:12:58;11.00;99.90
72936;DHT22;61085;48.804;9.228;2023-04-25T01:15:23;11.20;99.90
72936;DHT22;61085;48.804;9.228;2023-04-25T01:17:49;10.90;99.90
72936;DHT22;61085;48.804;9.228;2023-04-25T01:20:15;10.90;99.90
72936;DHT22;61085;48.804;9.228;2023-04-25T01:22:41;11.00;99.90
72936;DHT22;61085;48.804;9.228;2023-04-25T01:25:07;11.00;99.90
72936;DHT22;61085;48.804;9.228;2023-04-25T01:27:33;11.00;99.90
72936;DHT22;61085;48.804;9.228;2023-04-25T01:30:00;11.00;99.90
72936;DHT22;61085;48.804;9.228;2023-04-25T01:32:26;10.90;99.90
72936;DHT22;61085;48.804;9.228;2023-04-25T01:34:52;11.00;99.90
72936;DHT22;61085;48.804;9.228;2023-04-25T01:37:18;11.00;99.90
72936;DHT22;61085;48.804;9.228;2023-04-25T01:39:44;11.00;99.90
72936;DHT22;61085;48.804;9.228;2023-04-25T01:42:12;10.90;99.90
72936;DHT22;61085;48.804;9.228;2023-04-25T01:44:38;11.00;99.90
72936;DHT22;61085;48.804;9.228;2023-04-25T01:47:04;10.90;99.90
72936;DHT22;61085;48.804;9.228;2023-04-25T01:49:29;10.90;99.90
72936;DHT22;61085;48.804;9.228;2023-04-25T01:51:55;10.80;99.90
72936;DHT22;61085;48.804;9.228;2023-04-25T01:54:21;10.90;99.90
72936;DHT22;61085;48.804;9.228;2023-04-25T01:56:50;10.90;99.90
72936;DHT22;61085;48.804;9.228;2023-04-25T01:59:19;10.90;99.90
72936;DHT22;61085;48.804;9.228;2023-04-25T02:01:47;10.90;99.90
72936;DHT22;61085;48.804;9.228;2023-04-25T02:04:12;10.90;99.90
72936;DHT22;61085;48.804;9.228;2023-04-25T02:06:38;10.90;99.90
72936;DHT22;61085;48.804;9.228;2023-04-25T02:09:03;10.90;99.90
72936;DHT22;61085;48.804;9.228;2023-04-25T02:11:29;11.00;99.90
72936;DHT22;61085;48.804;9.228;2023-04-25T02:13:54;11.00;99.90
72936;DHT22;61085;48.804;9.228;2023-04-25T02:16:21;11.00;99.90
72936;DHT22;61085;48.804;9.228;2023-04-25T02:18:46;10.90;99.90
72936;DHT22;61085;48.804;9.228;2023-04-25T02:21:12;11.00;99.90
72936;DHT22;61085;48.804;9.228;2023-04-25T02:23:38;11.00;99.90
72936;DHT22;61085;48.804;9.228;2023-04-25T02:26:03;10.80;99.90
72936;DHT22;61085;48.804;9.228;2023-04-25T02:28:30;11.00;99.90
72936;DHT22;61085;48.804;9.228;2023-04-25T02:30:55;10.80;99.90
72936;DHT22;61085;48.804;9.228;2023-04-25T02:33:21;10.80;99.90
72936;DHT22;61085;48.804;9.228;2023-04-25T02:35:47;10.90;99.90
72936;DHT22;61085;48.804;9.228;2023-04-25T02:38:12;10.90;99.90
72936;DHT22;61085;48.804;9.228;2023-04-25T02:40:38;10.90;99.90
72936;DHT22;61085;48.804;9.228;2023-04-25T02:43:03;10.80;99.90
72936;DHT22;61085;48.804;9.228;2023-04-25T02:45:29;10.70;99.90
72936;DHT22;61085;48.804;9.228;2023-04-25T02:47:55;10.70;99.90
72936;DHT22;61085;48.804;9.228;2023-04-25T02:50:20;10.70;99.90
72936;DHT22;61085;48.804;9.228;2023-04-25T02:52:46;10.70;99.90
72936;DHT22;61085;48.804;9.228;2023-04-25T02:55:13;10.70;99.90
72936;DHT22;61085;48.804;9.228;2023-04-25T02:57:38;10.70;99.90
72936;DHT22;61085;48.804;9.228;2023-04-25T03:00:04;10.70;99.90
72936;DHT22;61085;48.804;9.228;2023-04-25T03:02:30;10.60;99.90
72936;DHT22;61085;48.804;9.228;2023-04-25T03:04:56;10.70;99.90
72936;DHT22;61085;48.804;9.228;2023-04-25T03:07:22;10.70;99.90
72936;DHT22;61085;48.804;9.228;2023-04-25T03:09:47;10.70;99.90
72936;DHT22;61085;48.804;9.228;2023-04-25T03:12:13;10.80;99.90
72936;DHT22;61085;48.804;9.228;2023-04-25T03:14:38;10.70;99.90
72936;DHT22;61085;48.804;9.228;2023-04-25T03:17:04;10.70;99.90
72936;DHT22;61085;48.804;9.228;2023-04-25T03:19:30;10.80;99.90
72936;DHT22;61085;48.804;9.228;2023-04-25T03:21:55;10.80;99.90
72936;DHT22;61085;48.804;9.228;2023-04-25T03:24:21;10.90;99.90
72936;DHT22;61085;48.804;9.228;2023-04-25T03:26:47;10.80;99.90
72936;DHT22;61085;48.804;9.228;2023-04-25T03:29:13;10.80;99.90
72936;DHT22;61085;48.804;9.228;2023-04-25T03:31:38;10.80;99.90
72936;DHT22;61085;48.804;9.228;2023-04-25T03:34:04;10.80;99.90
72936;DHT22;61085;48.804;9.228;2023-04-25T03:36:29;10.70;99.90
72936;DHT22;61085;48.804;9.228;2023-04-25T03:38:55;10.70;99.90
72936;DHT22;61085;48.804;9.228;2023-04-25T03:41:21;10.70;99.90
72936;DHT22;61085;48.804;9.228;2023-04-25T03:43:47;10.80;99.90
72936;DHT22;61085;48.804;9.228;2023-04-25T03:46:12;11.10;99.90
72936;DHT22;61085;48.804;9.228;2023-04-25T03:48:38;10.80;99.90
72936;DHT22;61085;48.804;9.228;2023-04-25T03:51:03;10.70;99.90
72936;DHT22;61085;48.804;9.228;2023-04-25T03:53:29;10.70;99.90
72936;DHT22;61085;48.804;9.228;2023-04-25T03:55:55;10.60;99.90
72936;DHT22;61085;48.804;9.228;2023-04-25T03:58:20;10.80;99.90
72936;DHT22;61085;48.804;9.228;2023-04-25T04:00:48;10.80;99.90
72936;DHT22;61085;48.804;9.228;2023-04-25T04:03:14;10.70;99.90
72936;DHT22;61085;48.804;9.228;2023-04-25T04:05:39;10.70;99.90
72936;DHT22;61085;48.804;9.228;2023-04-25T04:08:06;10.70;99.90
72936;DHT22;61085;48.804;9.228;2023-04-25T04:10:32;10.90;99.90
72936;DHT22;61085;48.804;9.228;2023-04-25T04:12:57;10.80;99.90
72936;DHT22;61085;48.804;9.228;2023-04-25T04:15:23;10.70;99.90
72936;DHT22;61085;48.804;9.228;2023-04-25T04:17:49;10.80;99.90
72936;DHT22;61085;48.804;9.228;2023-04-25T04:20:14;10.90;99.90
72936;DHT22;61085;48.804;9.228;2023-04-25T04:22:40;10.80;99.90
72936;DHT22;61085;48.804;9.228;2023-04-25T04:25:06;10.80;99.90
72936;DHT22;61085;48.804;9.228;2023-04-25T04:27:32;10.70;99.90
72936;DHT22;61085;48.804;9.228;2023-04-25T04:29:58;10.80;99.90
72936;DHT22;61085;48.804;9.228;2023-04-25T04:32:23;10.80;99.90
72936;DHT22;61085;48.804;9.228;2023-04-25T04:34:50;10.80;99.90
72936;DHT22;61085;48.804;9.228;2023-04-25T04:37:17;10.80;99.90
72936;DHT22;61085;48.804;9.228;2023-04-25T04:39:43;10.80;99.90
72936;DHT22;61085;48.804;9.228;2023-04-25T04:42:08;10.70;99.90
72936;DHT22;61085;48.804;9.228;2023-04-25T04:44:34;10.80;99.90
72936;DHT22;61085;48.804;9.228;2023-04-25T04:47:00;10.90;99.90
72936;DHT22;61085;48.804;9.228;2023-04-25T04:49:27;10.90;99.90
72936;DHT22;61085;48.804;9.228;2023-04-25T04:51:52;11.00;99.90
72936;DHT22;61085;48.804;9.228;2023-04-25T04:54:20;11.10;99.90
72936;DHT22;61085;48.804;9.228;2023-04-25T04:56:45;11.00;99.90
72936;DHT22;61085;48.804;9.228;2023-04-25T04:59:14;11.10;99.90
72936;DHT22;61085;48.804;9.228;2023-04-25T05:01:40;11.10;99.90
72936;DHT22;61085;48.804;9.228;2023-04-25T05:04:05;11.10;99.90
72936;DHT22;61085;48.804;9.228;2023-04-25T05:06:31;11.20;99.90
72936;DHT22;61085;48.804;9.228;2023-04-25T05:08:57;11.20;99.90
72936;DHT22;61085;48.804;9.228;2023-04-25T05:11:24;11.20;99.90
72936;DHT22;61085;48.804;9.228;2023-04-25T05:13:52;11.20;99.90
72936;DHT22;61085;48.804;9.228;2023-04-25T05:16:18;11.20;99.90
72936;DHT22;61085;48.804;9.228;2023-04-25T05:18:43;11.00;99.90
72936;DHT22;61085;48.804;9.228;2023-04-25T05:21:09;11.00;99.90
72936;DHT22;61085;48.804;9.228;2023-04-25T05:23:34;11.00;99.90
72936;DHT22;61085;48.804;9.228;2023-04-25T05:26:00;11.00;99.90
72936;DHT22;61085;48.804;9.228;2023-04-25T05:28:26;11.00;99.90
72936;DHT22;61085;48.804;9.228;2023-04-25T05:30:52;11.10;99.90
72936;DHT22;61085;48.804;9.228;2023-04-25T05:33:18;11.10;99.90
72936;DHT22;61085;48.804;9.228;2023-04-25T05:35:44;11.10;99.90
72936;DHT22;61085;48.804;9.228;2023-04-25T05:38:10;11.20;99.90
72936;DHT22;61085;48.804;9.228;2023-04-25T05:40:36;11.10;99.90
72936;DHT22;61085;48.804;9.228;2023-04-25T05:43:01;11.10;99.90
72936;DHT22;61085;48.804;9.228;2023-04-25T05:45:27;11.10;99.90
72936;DHT22;61085;48.804;9.228;2023-04-25T05:47:53;11.00;99.90
72936;DHT22;61085;48.804;9.228;2023-04-25T05:50:18;10.90;99.90
72936;DHT22;61085;48.804;9.228;2023-04-25T05:52:44;10.90;99.90
72936;DHT22;61085;48.804;9.228;2023-04-25T05:55:09;10.90;99.90
72936;DHT22;61085;48.804;9.228;2023-04-25T05:57:35;10.80;99.90
72936;DHT22;61085;48.804;9.228;2023-04-25T06:00:01;10.70;99.90
72936;DHT22;61085;48.804;9.228;2023-04-25T06:02:27;10.70;99.90
72936;DHT22;61085;48.804;9.228;2023-04-25T06:04:52;10.60;99.90
72936;DHT22;61085;48.804;9.228;2023-04-25T06:07:19;10.60;99.90
72936;DHT22;61085;48.804;9.228;2023-04-25T06:09:45;10.60;99.90
72936;DHT22;61085;48.804;9.228;2023-04-25T06:12:10;10.70;99.90
72936;DHT22;61085;48.804;9.228;2023-04-25T06:14:36;10.70;99.90
72936;DHT22;61085;48.804;9.228;2023-04-25T06:17:02;10.60;99.90
72936;DHT22;61085;48.804;9.228;2023-04-25T06:19:32;10.70;99.90
72936;DHT22;61085;48.804;9.228;2023-04-25T06:21:58;10.80;99.90
72936;DHT22;61085;48.804;9.228;2023-04-25T06:24:24;10.80;99.90
72936;DHT22;61085;48.804;9.228;2023-04-25T06:26:49;10.80;99.90
72936;DHT22;61085;48.804;9.228;2023-04-25T06:29:15;11.00;99.90
72936;DHT22;61085;48.804;9.228;2023-04-25T06:31:41;10.90;99.90
72936;DHT22;61085;48.804;9.228;2023-04-25T06:34:06;11.00;99.90
72936;DHT22;61085;48.804;9.228;2023-04-25T06:36:32;11.10;99.90
72936;DHT22;61085;48.804;9.228;2023-04-25T06:38:57;11.30;99.90
72936;DHT22;61085;48.804;9.228;2023-04-25T06:41:23;11.50;99.90
72936;DHT22;61085;48.804;9.228;2023-04-25T06:43:48;11.70;99.90
72936;DHT22;61085;48.804;9.228;2023-04-25T06:46:14;11.90;99.90
72936;DHT22;61085;48.804;9.228;2023-04-25T06:48:40;12.10;99.90
72936;DHT22;61085;48.804;9.228;2023-04-25T06:51:05;12.20;99.90
72936;DHT22;61085;48.804;9.228;2023-04-25T06:53:31;12.40;99.90
72936;DHT22;61085;48.804;9.228;2023-04-25T06:55:56;12.40;99.90
72936;DHT22;61085;48.804;9.228;2023-04-25T06:58:22;12.50;99.90
72936;DHT22;61085;48.804;9.228;2023-04-25T07:00:48;12.60;99.90
72936;DHT22;61085;48.804;9.228;2023-04-25T07:03:13;12.70;99.90
72936;DHT22;61085;48.804;9.228;2023-04-25T07:05:39;12.80;99.90
72936;DHT22;61085;48.804;9.228;2023-04-25T07:08:04;12.80;98.80
72936;DHT22;61085;48.804;9.228;2023-04-25T07:10:30;12.90;98.60
72936;DHT22;61085;48.804;9.228;2023-04-25T07:12:56;12.70;99.10
72936;DHT22;61085;48.804;9.228;2023-04-25T07:15:21;12.60;99.10
72936;DHT22;61085;48.804;9.228;2023-04-25T07:17:47;12.40;99.40
72936;DHT22;61085;48.804;9.228;2023-04-25T07:20:13;12.30;99.80
72936;DHT22;61085;48.804;9.228;2023-04-25T07:22:38;12.30;99.90
72936;DHT22;61085;48.804;9.228;2023-04-25T07:25:04;12.10;99.90
72936;DHT22;61085;48.804;9.228;2023-04-25T07:27:31;12.00;99.90
72936;DHT22;61085;48.804;9.228;2023-04-25T07:29:57;11.90;99.90
72936;DHT22;61085;48.804;9.228;2023-04-25T07:32:23;11.80;99.90
72936;DHT22;61085;48.804;9.228;2023-04-25T07:34:48;11.70;99.90
72936;DHT22;61085;48.804;9.228;2023-04-25T07:37:14;11.70;99.90
72936;DHT22;61085;48.804;9.228;2023-04-25T07:39:40;11.60;99.90
72936;DHT22;61085;48.804;9.228;2023-04-25T07:42:06;11.60;99.90
72936;DHT22;61085;48.804;9.228;2023-04-25T07:44:34;11.70;99.90
72936;DHT22;61085;48.804;9.228;2023-04-25T07:47:05;11.70;99.90
72936;DHT22;61085;48.804;9.228;2023-04-25T07:49:33;11.60;99.90
72936;DHT22;61085;48.804;9.228;2023-04-25T07:52:00;11.50;99.90
72936;DHT22;61085;48.804;9.228;2023-04-25T07:54:26;11.60;99.90
72936;DHT22;61085;48.804;9.228;2023-04-25T07:56:51;11.60;99.90
72936;DHT22;61085;48.804;9.228;2023-04-25T07:59:17;11.50;99.90
72936;DHT22;61085;48.804;9.228;2023-04-25T08:01:43;11.40;99.90
72936;DHT22;61085;48.804;9.228;2023-04-25T08:04:08;11.30;99.90
72936;DHT22;61085;48.804;9.228;2023-04-25T08:06:34;11.40;99.90
72936;DHT22;61085;48.804;9.228;2023-04-25T08:09:01;11.30;99.90
72936;DHT22;61085;48.804;9.228;2023-04-25T08:11:27;11.40;99.90
72936;DHT22;61085;48.804;9.228;2023-04-25T08:13:52;11.50;99.90
72936;DHT22;61085;48.804;9.228;2023-04-25T08:16:18;11.40;99.90
72936;DHT22;61085;48.804;9.228;2023-04-25T08:18:43;11.50;99.90
72936;DHT22;61085;48.804;9.228;2023-04-25T08:21:09;11.50;99.90
72936;DHT22;61085;48.804;9.228;2023-04-25T08:23:39;11.50;99.90
72936;DHT22;61085;48.804;9.228;2023-04-25T08:26:05;11.50;99.90
72936;DHT22;61085;48.804;9.228;2023-04-25T08:28:31;11.40;99.90
72936;DHT22;61085;48.804;9.228;2023-04-25T08:30:56;11.40;99.90
72936;DHT22;61085;48.804;9.228;2023-04-25T08:33:22;11.30;99.90
72936;DHT22;61085;48.804;9.228;2023-04-25T08:35:48;11.10;99.90
72936;DHT22;61085;48.804;9.228;2023-04-25T08:38:14;11.10;99.90
72936;DHT22;61085;48.804;9.228;2023-04-25T08:40:40;11.00;99.90
72936;DHT22;61085;48.804;9.228;2023-04-25T08:43:07;11.00;99.90
72936;DHT22;61085;48.804;9.228;2023-04-25T08:45:39;10.90;99.90
72936;DHT22;61085;48.804;9.228;2023-04-25T08:48:10;10.90;99.90
72936;DHT22;61085;48.804;9.228;2023-04-25T08:53:32;11.00;99.90
72936;DHT22;61085;48.804;9.228;2023-04-25T08:56:00;10.90;99.90
72936;DHT22;61085;48.804;9.228;2023-04-25T08:58:29;11.00;99.90
72936;DHT22;61085;48.804;9.228;2023-04-25T09:00:55;11.00;99.90
72936;DHT22;61085;48.804;9.228;2023-04-25T09:03:21;11.00;99.90
72936;DHT22;61085;48.804;9.228;2023-04-25T09:05:47;11.00;99.90
72936;DHT22;61085;48.804;9.228;2023-04-25T09:08:13;10.90;99.90
72936;DHT22;61085;48.804;9.228;2023-04-25T09:10:39;11.00;99.90
72936;DHT22;61085;48.804;9.228;2023-04-25T09:15:32;11.00;99.90
72936;DHT22;61085;48.804;9.228;2023-04-25T09:17:59;11.00;99.90
72936;DHT22;61085;48.804;9.228;2023-04-25T09:20:25;10.90;99.90
72936;DHT22;61085;48.804;9.228;2023-04-25T09:23:04;10.90;99.90
72936;DHT22;61085;48.804;9.228;2023-04-25T09:25:35;10.90;99.90
72936;DHT22;61085;48.804;9.228;2023-04-25T09:28:04;10.90;99.90
72936;DHT22;61085;48.804;9.228;2023-04-25T09:30:31;11.00;99.90
72936;DHT22;61085;48.804;9.228;2023-04-25T09:33:03;10.80;99.90
72936;DHT22;61085;48.804;9.228;2023-04-25T09:35:29;10.80;99.90
72936;DHT22;61085;48.804;9.228;2023-04-25T09:37:55;10.80;99.90
72936;DHT22;61085;48.804;9.228;2023-04-25T09:40:21;10.70;99.90
72936;DHT22;61085;48.804;9.228;2023-04-25T09:42:47;10.60;99.90
72936;DHT22;61085;48.804;9.228;2023-04-25T09:45:13;10.60;99.90
72936;DHT22;61085;48.804;9.228;2023-04-25T09:47:41;10.50;99.90
72936;DHT22;61085;48.804;9.228;2023-04-25T09:50:16;10.60;99.90
72936;DHT22;61085;48.804;9.228;2023-04-25T09:52:42;10.40;99.90
72936;DHT22;61085;48.804;9.228;2023-04-25T09:55:08;10.30;99.90
72936;DHT22;61085;48.804;9.228;2023-04-25T09:57:34;10.30;99.90
72936;DHT22;61085;48.804;9.228;2023-04-25T10:00:01;10.40;99.90
72936;DHT22;61085;48.804;9.228;2023-04-25T10:02:30;10.50;99.90
72936;DHT22;61085;48.804;9.228;2023-04-25T10:04:58;10.60;99.90
72936;DHT22;61085;48.804;9.228;2023-04-25T10:07:26;10.50;99.90
72936;DHT22;61085;48.804;9.228;2023-04-25T10:10:02;10.50;99.90
72936;DHT22;61085;48.804;9.228;2023-04-25T10:12:29;10.40;99.90
72936;DHT22;61085;48.804;9.228;2023-04-25T10:14:55;10.30;99.90
72936;DHT22;61085;48.804;9.228;2023-04-25T10:17:21;10.20;99.90
72936;DHT22;61085;48.804;9.228;2023-04-25T10:19:47;10.30;99.90
72936;DHT22;61085;48.804;9.228;2023-04-25T10:22:26;10.20;99.90
72936;DHT22;61085;48.804;9.228;2023-04-25T10:24:55;10.20;99.90
72936;DHT22;61085;48.804;9.228;2023-04-25T10:27:22;10.20;99.90
72936;DHT22;61085;48.804;9.228;2023-04-25T10:32:36;10.30;99.90
72936;DHT22;61085;48.804;9.228;2023-04-25T10:35:14;10.20;99.90
72936;DHT22;61085;48.804;9.228;2023-04-25T10:40:26;10.20;99.90
72936;DHT22;61085;48.804;9.228;2023-04-25T10:42:52;10.10;99.90
72936;DHT22;61085;48.804;9.228;2023-04-25T10:45:20;10.10;99.90
72936;DHT22;61085;48.804;9.228;2023-04-25T10:47:46;10.20;99.90
72936;DHT22;61085;48.804;9.228;2023-04-25T10:50:13;10.20;99.90
72936;DHT22;61085;48.804;9.228;2023-04-25T10:52:39;10.10;99.90
72936;DHT22;61085;48.804;9.228;2023-04-25T10:55:06;10.10;99.90
72936;DHT22;61085;48.804;9.228;2023-04-25T10:57:41;9.80;99.90
72936;DHT22;61085;48.804;9.228;2023-04-25T11:00:18;9.70;99.90
72936;DHT22;61085;48.804;9.228;2023-04-25T11:02:51;9.70;99.90
72936;DHT22;61085;48.804;9.228;2023-04-25T11:05:36;9.60;99.90
72936;DHT22;61085;48.804;9.228;2023-04-25T11:08:02;9.50;99.90
72936;DHT22;61085;48.804;9.228;2023-04-25T11:10:32;9.50;99.90
72936;DHT22;61085;48.804;9.228;2023-04-25T11:13:00;9.50;99.90
72936;DHT22;61085;48.804;9.228;2023-04-25T11:15:28;9.50;99.90
72936;DHT22;61085;48.804;9.228;2023-04-25T11:17:55;9.50;99.90
72936;DHT22;61085;48.804;9.228;2023-04-25T11:20:21;9.90;99.90
72936;DHT22;61085;48.804;9.228;2023-04-25T11:22:48;9.90;99.90
72936;DHT22;61085;48.804;9.228;2023-04-25T11:25:15;10.00;99.90
72936;DHT22;61085;48.804;9.228;2023-04-25T11:27:55;10.00;99.90
72936;DHT22;61085;48.804;9.228;2023-04-25T11:30:23;10.20;99.90
72936;DHT22;61085;48.804;9.228;2023-04-25T11:32:49;10.30;99.90
72936;DHT22;61085;48.804;9.228;2023-04-25T11:35:16;10.50;99.90
72936;DHT22;61085;48.804;9.228;2023-04-25T11:37:42;10.70;99.90
72936;DHT22;61085;48.804;9.228;2023-04-25T11:40:09;10.90;99.90
72936;DHT22;61085;48.804;9.228;2023-04-25T11:42:42;10.90;99.90
72936;DHT22;61085;48.804;9.228;2023-04-25T11:45:08;10.90;99.90
72936;DHT22;61085;48.804;9.228;2023-04-25T11:47:35;11.00;99.90
72936;DHT22;61085;48.804;9.228;2023-04-25T11:50:02;11.10;99.90
72936;DHT22;61085;48.804;9.228;2023-04-25T11:52:44;11.10;99.90
72936;DHT22;61085;48.804;9.228;2023-04-25T11:55:20;11.20;99.90
72936;DHT22;61085;48.804;9.228;2023-04-25T11:57:48;11.20;99.90
72936;DHT22;61085;48.804;9.228;2023-04-25T12:00:18;11.20;99.90
72936;DHT22;61085;48.804;9.228;2023-04-25T12:02:53;11.20;99.90
72936;DHT22;61085;48.804;9.228;2023-04-25T12:05:19;11.30;99.90
72936;DHT22;61085;48.804;9.228;2023-04-25T12:07:46;11.40;99.90
72936;DHT22;61085;48.804;9.228;2023-04-25T12:10:14;11.40;99.90
72936;DHT22;61085;48.804;9.228;2023-04-25T12:12:45;11.60;99.90
72936;DHT22;61085;48.804;9.228;2023-04-25T12:15:24;11.50;99.90
72936;DHT22;61085;48.804;9.228;2023-04-25T12:17:52;11.60;99.90
72936;DHT22;61085;48.804;9.228;2023-04-25T12:20:20;11.60;99.90
72936;DHT22;61085;48.804;9.228;2023-04-25T12:22:47;11.40;99.90
72936;DHT22;61085;48.804;9.228;2023-04-25T12:25:40;11.30;99.90
72936;DHT22;61085;48.804;9.228;2023-04-25T12:28:21;11.30;99.90
72936;DHT22;61085;48.804;9.228;2023-04-25T12:31:05;11.20;99.90
72936;DHT22;61085;48.804;9.228;2023-04-25T12:33:35;11.10;99.90
72936;DHT22;61085;48.804;9.228;2023-04-25T12:36:03;11.10;99.90
72936;DHT22;61085;48.804;9.228;2023-04-25T12:38:36;10.90;99.90
72936;DHT22;61085;48.804;9.228;2023-04-25T12:41:02;10.90;99.90
72936;DHT22;61085;48.804;9.228;2023-04-25T12:43:28;10.80;99.90
72936;DHT22;61085;48.804;9.228;2023-04-25T12:45:54;10.80;99.90
72936;DHT22;61085;48.804;9.228;2023-04-25T12:48:21;10.90;99.90
72936;DHT22;61085;48.804;9.228;2023-04-25T12:50:47;11.10;99.90
72936;DHT22;61085;48.804;9.228;2023-04-25T12:53:18;11.20;99.90
72936;DHT22;61085;48.804;9.228;2023-04-25T12:55:44;11.30;99.90
72936;DHT22;61085;48.804;9.228;2023-04-25T12:58:17;11.50;99.90
72936;DHT22;61085;48.804;9.228;2023-04-25T13:00:43;11.70;99.90
72936;DHT22;61085;48.804;9.228;2023-04-25T13:03:09;11.90;99.90
72936;DHT22;61085;48.804;9.228;2023-04-25T13:05:36;12.20;99.90
72936;DHT22;61085;48.804;9.228;2023-04-25T13:08:02;12.30;99.90
72936;DHT22;61085;48.804;9.228;2023-04-25T13:10:28;12.60;99.90
72936;DHT22;61085;48.804;9.228;2023-04-25T13:12:53;12.60;99.90
72936;DHT22;61085;48.804;9.228;2023-04-25T13:15:19;12.50;99.90
72936;DHT22;61085;48.804;9.228;2023-04-25T13:17:45;12.50;99.90
72936;DHT22;61085;48.804;9.228;2023-04-25T13:20:11;12.70;99.90
72936;DHT22;61085;48.804;9.228;2023-04-25T13:22:38;12.70;99.90
72936;DHT22;61085;48.804;9.228;2023-04-25T13:25:05;12.90;99.90
72936;DHT22;61085;48.804;9.228;2023-04-25T13:27:32;12.80;99.90
72936;DHT22;61085;48.804;9.228;2023-04-25T13:29:59;12.70;99.90
72936;DHT22;61085;48.804;9.228;2023-04-25T13:32:25;12.80;99.90
72936;DHT22;61085;48.804;9.228;2023-04-25T13:34:51;13.00;99.90
72936;DHT22;61085;48.804;9.228;2023-04-25T13:37:17;13.00;99.90
72936;DHT22;61085;48.804;9.228;2023-04-25T13:39:42;12.70;99.90
72936;DHT22;61085;48.804;9.228;2023-04-25T13:42:08;12.80;99.90
72936;DHT22;61085;48.804;9.228;2023-04-25T13:44:33;12.70;99.90
72936;DHT22;61085;48.804;9.228;2023-04-25T13:46:59;12.70;99.90
72936;DHT22;61085;48.804;9.228;2023-04-25T13:49:26;12.60;99.90
72936;DHT22;61085;48.804;9.228;2023-04-25T13:51:52;12.60;99.90
72936;DHT22;61085;48.804;9.228;2023-04-25T13:54:17;12.60;99.90
72936;DHT22;61085;48.804;9.228;2023-04-25T13:56:43;12.40;99.90
72936;DHT22;61085;48.804;9.228;2023-04-25T13:59:08;12.40;99.90
72936;DHT22;61085;48.804;9.228;2023-04-25T14:01:34;12.40;99.90
72936;DHT22;61085;48.804;9.228;2023-04-25T14:04:01;12.50;99.90
72936;DHT22;61085;48.804;9.228;2023-04-25T14:06:29;12.40;99.90
72936;DHT22;61085;48.804;9.228;2023-04-25T14:08:54;12.60;99.90
72936;DHT22;61085;48.804;9.228;2023-04-25T14:11:20;12.60;99.90
72936;DHT22;61085;48.804;9.228;2023-04-25T14:13:46;12.60;99.90
72936;DHT22;61085;48.804;9.228;2023-04-25T14:16:12;12.70;99.90
72936;DHT22;61085;48.804;9.228;2023-04-25T14:18:38;12.60;99.90
72936;DHT22;61085;48.804;9.228;2023-04-25T14:21:04;12.60;99.90
72936;DHT22;61085;48.804;9.228;2023-04-25T14:23:30;12.70;99.90
72936;DHT22;61085;48.804;9.228;2023-04-25T14:25:55;12.90;99.90
72936;DHT22;61085;48.804;9.228;2023-04-25T14:28:21;13.00;99.90
72936;DHT22;61085;48.804;9.228;2023-04-25T14:30:47;13.30;99.90
72936;DHT22;61085;48.804;9.228;2023-04-25T14:33:12;13.10;99.90
72936;DHT22;61085;48.804;9.228;2023-04-25T14:35:39;13.20;99.90
72936;DHT22;61085;48.804;9.228;2023-04-25T14:38:05;13.20;99.90
72936;DHT22;61085;48.804;9.228;2023-04-25T14:40:31;13.20;99.90
72936;DHT22;61085;48.804;9.228;2023-04-25T14:42:56;12.90;99.90
72936;DHT22;61085;48.804;9.228;2023-04-25T14:45:22;12.80;99.90
72936;DHT22;61085;48.804;9.228;2023-04-25T14:47:47;13.00;99.90
72936;DHT22;61085;48.804;9.228;2023-04-25T14:50:13;13.00;99.90
72936;DHT22;61085;48.804;9.228;2023-04-25T14:52:39;13.40;99.90
72936;DHT22;61085;48.804;9.228;2023-04-25T14:55:05;13.30;99.90
72936;DHT22;61085;48.804;9.228;2023-04-25T14:57:32;13.20;99.90
72936;DHT22;61085;48.804;9.228;2023-04-25T14:59:58;13.30;99.90
72936;DHT22;61085;48.804;9.228;2023-04-25T15:02:24;13.20;99.90
72936;DHT22;61085;48.804;9.228;2023-04-25T15:04:50;13.10;99.90
72936;DHT22;61085;48.804;9.228;2023-04-25T15:07:16;13.00;99.90
72936;DHT22;61085;48.804;9.228;2023-04-25T15:09:41;12.80;99.90
72936;DHT22;61085;48.804;9.228;2023-04-25T15:12:07;12.90;99.90
72936;DHT22;61085;48.804;9.228;2023-04-25T15:14:33;13.10;99.90
72936;DHT22;61085;48.804;9.228;2023-04-25T15:16:59;13.10;99.90
72936;DHT22;61085;48.804;9.228;2023-04-25T15:19:25;13.10;99.90
72936;DHT22;61085;48.804;9.228;2023-04-25T15:21:51;13.20;99.90
72936;DHT22;61085;48.804;9.228;2023-04-25T15:24:17;13.00;99.90
72936;DHT22;61085;48.804;9.228;2023-04-25T15:26:43;12.70;99.90
72936;DHT22;61085;48.804;9.228;2023-04-25T15:29:10;12.50;99.90
72936;DHT22;61085;48.804;9.228;2023-04-25T15:31:37;12.70;99.90
72936;DHT22;61085;48.804;9.228;2023-04-25T15:34:03;13.00;99.90
72936;DHT22;61085;48.804;9.228;2023-04-25T15:36:29;13.20;99.90
72936;DHT22;61085;48.804;9.228;2023-04-25T15:38:55;13.30;99.90
72936;DHT22;61085;48.804;9.228;2023-04-25T15:41:21;13.20;99.90